createdAt,value
2018-09-11T00:02:04.309Z,22.70
2018-09-11T00:04:35.752Z,22.70
2018-09-11T00:12:09.592Z,22.90
2018-09-11T00:14:41.193Z,22.80
2018-09-11T00:20:28.836Z,22.70
2018-09-11T00:23:00.401Z,22.70
2018-09-11T00:25:31.769Z,22.70
2018-09-11T00:28:03.305Z,22.70
2018-09-11T00:30:34.539Z,22.70
2018-09-11T00:33:05.768Z,22.70
2018-09-11T00:35:36.795Z,22.70
2018-09-11T00:38:07.907Z,22.70
2018-09-11T00:40:38.356Z,22.70
2018-09-11T00:43:09.658Z,22.70
2018-09-11T00:45:40.688Z,22.70
2018-09-11T00:48:11.912Z,22.70
2018-09-11T00:50:42.341Z,22.70
2018-09-11T00:53:13.644Z,22.70
2018-09-11T00:55:44.719Z,22.70
2018-09-11T00:58:15.862Z,22.70
2018-09-11T01:00:46.840Z,22.70
2018-09-11T01:03:18.210Z,22.70
2018-09-11T01:05:49.552Z,22.70
2018-09-11T01:08:21.567Z,22.70
2018-09-11T01:10:52.616Z,22.70
2018-09-11T01:13:23.782Z,22.70
2018-09-11T01:15:54.815Z,22.70
2018-09-11T01:18:26.218Z,22.70
2018-09-11T01:20:57.685Z,22.70
2018-09-11T01:23:28.904Z,22.70
2018-09-11T01:25:59.889Z,22.70
2018-09-11T01:28:30.415Z,22.70
2018-09-11T01:31:01.698Z,22.70
2018-09-11T01:33:32.893Z,22.60
2018-09-11T01:36:03.470Z,22.60
2018-09-11T01:38:34.744Z,22.60
2018-09-11T01:41:06.358Z,22.60
2018-09-11T01:43:38.207Z,22.60
2018-09-11T01:46:09.708Z,22.60
2018-09-11T01:48:41.460Z,22.60
2018-09-11T01:51:13.209Z,22.60
2018-09-11T01:53:44.808Z,22.60
2018-09-11T01:58:59.523Z,22.60
2018-09-11T02:01:30.694Z,22.60
2018-09-11T02:04:01.748Z,22.60
2018-09-11T02:09:03.622Z,22.60
2018-09-11T02:11:35.196Z,22.60
2018-09-11T02:14:06.827Z,22.60
2018-09-11T02:16:38.425Z,22.60
2018-09-11T02:19:10.223Z,22.60
2018-09-11T02:21:41.755Z,22.60
2018-09-11T02:24:13.309Z,22.60
2018-09-11T02:26:44.816Z,22.60
2018-09-11T02:34:19.227Z,22.70
2018-09-11T02:36:50.672Z,22.60
2018-09-11T02:39:22.226Z,22.60
2018-09-11T02:41:53.707Z,22.60
2018-09-11T02:44:25.301Z,22.50
2018-09-11T02:46:56.782Z,22.50
2018-09-11T02:49:28.301Z,22.50
2018-09-11T02:51:59.908Z,22.60
2018-09-11T02:54:30.589Z,22.50
2018-09-11T02:57:02.235Z,22.50
2018-09-11T02:59:33.781Z,22.50
2018-09-11T03:02:05.311Z,22.50
2018-09-11T03:04:36.844Z,22.50
2018-09-11T03:07:08.385Z,22.50
2018-09-11T03:09:39.913Z,22.50
2018-09-11T03:12:10.601Z,22.50
2018-09-11T03:14:42.305Z,22.50
2018-09-11T03:17:13.948Z,22.50
2018-09-11T03:19:45.706Z,22.50
2018-09-11T03:22:17.439Z,22.50
2018-09-11T03:24:48.820Z,22.50
2018-09-11T03:27:20.401Z,22.50
2018-09-11T03:29:52.429Z,22.50
2018-09-11T03:32:23.985Z,22.50
2018-09-11T03:34:55.530Z,22.50
2018-09-11T03:37:27.257Z,22.50
2018-09-11T03:39:58.797Z,22.50
2018-09-11T03:42:30.313Z,22.50
2018-09-11T03:45:02.228Z,22.40
2018-09-11T03:47:33.882Z,22.50
2018-09-11T03:50:04.597Z,22.40
2018-09-11T03:52:36.201Z,22.40
2018-09-11T03:55:08.688Z,22.40
2018-09-11T03:57:40.221Z,22.50
2018-09-11T04:00:11.831Z,22.40
2018-09-11T04:02:43.440Z,22.40
2018-09-11T04:05:14.981Z,22.40
2018-09-11T04:07:46.509Z,22.40
2018-09-11T04:10:17.980Z,22.40
2018-09-11T04:12:49.661Z,22.40
2018-09-11T04:15:21.326Z,22.40
2018-09-11T04:17:52.814Z,22.40
2018-09-11T04:20:24.444Z,22.40
2018-09-11T04:22:55.777Z,22.40
2018-09-11T04:25:33.932Z,22.40
2018-09-11T04:28:05.516Z,22.40
2018-09-11T04:30:37.212Z,22.40
2018-09-11T04:33:08.700Z,22.40
2018-09-11T04:35:40.303Z,22.40
2018-09-11T04:38:11.758Z,22.40
2018-09-11T04:40:43.454Z,22.40
2018-09-11T04:43:15.005Z,22.40
2018-09-11T04:45:46.683Z,22.40
2018-09-11T04:48:18.198Z,22.40
2018-09-11T04:50:49.724Z,22.40
2018-09-11T04:58:23.787Z,22.50
2018-09-11T05:00:55.320Z,22.50
2018-09-11T05:03:26.510Z,22.40
2018-09-11T05:05:58.345Z,22.40
2018-09-11T05:08:29.795Z,22.40
2018-09-11T05:11:01.636Z,22.40
2018-09-11T05:13:33.201Z,22.40
2018-09-11T05:16:05.225Z,22.40
2018-09-11T05:18:36.703Z,22.40
2018-09-11T05:21:08.448Z,22.40
2018-09-11T05:23:40.210Z,22.40
2018-09-11T05:26:11.742Z,22.40
2018-09-11T05:28:43.318Z,22.40
2018-09-11T05:31:15.288Z,22.40
2018-09-11T05:33:46.785Z,22.40
2018-09-11T05:36:18.672Z,22.40
2018-09-11T05:38:50.211Z,22.40
2018-09-11T05:41:21.894Z,22.40
2018-09-11T05:43:52.524Z,22.40
2018-09-11T05:46:24.214Z,22.40
2018-09-11T05:48:55.741Z,22.40
2018-09-11T05:51:27.309Z,22.40
2018-09-11T05:53:58.743Z,22.40
2018-09-11T05:56:59.483Z,22.40
2018-09-11T05:59:30.701Z,22.40
2018-09-11T06:02:01.747Z,22.40
2018-09-11T06:04:32.829Z,22.40
2018-09-11T06:07:03.965Z,22.40
2018-09-11T06:09:34.980Z,22.40
2018-09-11T06:12:05.971Z,22.40
2018-09-11T06:14:37.221Z,22.50
2018-09-11T06:17:08.756Z,22.40
2018-09-11T06:19:39.858Z,22.50
2018-09-11T06:22:10.889Z,22.50
2018-09-11T06:24:41.810Z,22.50
2018-09-11T06:27:12.932Z,22.50
2018-09-11T06:29:43.354Z,22.50
2018-09-11T06:34:29.674Z,22.60
2018-09-11T06:37:00.731Z,22.60
2018-09-11T06:39:31.859Z,22.60
2018-09-11T06:42:02.815Z,22.60
2018-09-11T06:44:33.856Z,22.60
2018-09-11T06:47:05.054Z,22.70
2018-09-11T06:49:36.441Z,22.70
2018-09-11T06:52:07.672Z,22.70
2018-09-11T06:54:57.617Z,22.70
2018-09-11T06:57:29.223Z,22.70
2018-09-11T07:00:00.714Z,22.70
2018-09-11T07:02:32.321Z,22.70
2018-09-11T07:05:03.754Z,22.70
2018-09-11T07:07:35.192Z,22.70
2018-09-11T07:10:07.529Z,22.70
2018-09-11T07:12:38.893Z,22.80
2018-09-11T07:15:10.652Z,22.80
2018-09-11T07:17:41.979Z,22.80
2018-09-11T07:20:13.749Z,22.80
2018-09-11T07:22:44.904Z,22.80
2018-09-11T07:25:16.401Z,22.80
2018-09-11T07:27:47.790Z,22.80
2018-09-11T07:30:19.686Z,22.80
2018-09-11T07:32:51.206Z,22.80
2018-09-11T07:35:22.665Z,22.90
2018-09-11T07:37:54.745Z,22.80
2018-09-11T07:40:26.337Z,22.90
2018-09-11T07:42:57.762Z,22.90
2018-09-11T07:45:29.382Z,22.90
2018-09-11T07:48:00.735Z,22.90
2018-09-11T07:50:32.344Z,22.90
2018-09-11T07:53:04.692Z,22.90
2018-09-11T07:55:36.211Z,22.90
2018-09-11T07:58:07.873Z,22.90
2018-09-11T08:00:39.294Z,23.00
2018-09-11T08:03:10.929Z,23.00
2018-09-11T08:05:41.545Z,23.00
2018-09-11T08:08:13.065Z,23.00
2018-09-11T08:10:44.624Z,23.00
2018-09-11T08:13:17.528Z,23.00
2018-09-11T08:15:49.638Z,23.00
2018-09-11T08:18:21.203Z,23.00
2018-09-11T08:20:52.668Z,23.00
2018-09-11T08:23:23.893Z,23.00
2018-09-11T08:25:54.592Z,23.00
2018-09-11T08:28:26.211Z,23.00
2018-09-11T08:30:57.989Z,23.00
2018-09-11T08:33:29.706Z,23.00
2018-09-11T08:36:01.447Z,23.00
2018-09-11T08:38:32.886Z,23.00
2018-09-11T08:41:03.837Z,23.10
2018-09-11T08:46:22.684Z,23.10
2018-09-11T08:48:53.692Z,23.00
2018-09-11T08:51:24.838Z,23.10
2018-09-11T08:53:55.864Z,23.10
2018-09-11T08:56:26.844Z,23.10
2018-09-11T08:58:57.913Z,23.10
2018-09-11T09:01:28.620Z,23.10
2018-09-11T09:04:00.211Z,23.10
2018-09-11T09:06:31.747Z,23.20
2018-09-11T09:09:03.322Z,23.20
2018-09-11T09:11:35.191Z,23.20
2018-09-11T09:14:06.700Z,23.20
2018-09-11T09:16:58.695Z,23.20
2018-09-11T09:19:29.735Z,23.20
2018-09-11T09:22:00.893Z,23.20
2018-09-11T09:24:31.565Z,23.20
2018-09-11T09:27:03.293Z,23.20
2018-09-11T09:29:34.751Z,23.20
2018-09-11T09:32:06.423Z,23.20
2018-09-11T09:34:37.864Z,23.20
2018-09-11T09:37:09.415Z,23.20
2018-09-11T09:39:41.225Z,23.20
2018-09-11T09:42:12.735Z,23.20
2018-09-11T09:44:44.218Z,23.20
2018-09-11T09:47:15.712Z,23.20
2018-09-11T09:49:47.300Z,23.20
2018-09-11T09:52:18.806Z,23.20
2018-09-11T09:54:50.213Z,23.20
2018-09-11T09:57:21.782Z,23.20
2018-09-11T10:01:25.627Z,23.30
2018-09-11T10:03:56.683Z,23.30
2018-09-11T10:06:27.747Z,23.30
2018-09-11T10:08:58.870Z,23.30
2018-09-11T10:11:29.831Z,23.30
2018-09-11T10:19:03.973Z,23.40
2018-09-11T10:21:35.651Z,23.30
2018-09-11T10:24:07.757Z,23.30
2018-09-11T10:26:39.205Z,23.30
2018-09-11T10:29:10.747Z,23.30
2018-09-11T10:31:42.410Z,23.30
2018-09-11T10:34:13.992Z,23.30
2018-09-11T10:36:45.515Z,23.30
2018-09-11T10:39:17.244Z,23.30
2018-09-11T10:41:48.753Z,23.30
2018-09-11T10:44:20.406Z,23.30
2018-09-11T10:46:51.754Z,23.30
2018-09-11T10:49:23.423Z,23.30
2018-09-11T10:51:55.035Z,23.30
2018-09-11T10:54:26.591Z,23.30
2018-09-11T10:56:58.510Z,23.30
2018-09-11T10:59:29.921Z,23.30
2018-09-11T11:02:00.551Z,23.30
2018-09-11T11:04:32.225Z,23.30
2018-09-11T11:07:03.702Z,23.30
2018-09-11T11:09:34.961Z,23.30
2018-09-11T11:12:05.555Z,23.30
2018-09-11T11:14:37.222Z,23.30
2018-09-11T11:17:08.760Z,23.30
2018-09-11T11:19:40.413Z,23.30
2018-09-11T11:22:11.829Z,23.30
2018-09-11T11:24:43.389Z,23.30
2018-09-11T11:27:15.082Z,23.40
2018-09-11T11:29:46.824Z,23.30
2018-09-11T11:34:49.994Z,23.40
2018-09-11T11:37:21.761Z,23.40
2018-09-11T11:39:53.201Z,23.40
2018-09-11T11:42:24.768Z,23.40
2018-09-11T11:44:56.303Z,23.40
2018-09-11T11:47:27.764Z,23.40
2018-09-11T11:55:01.554Z,23.50
2018-09-11T11:57:33.219Z,23.40
2018-09-11T12:00:04.718Z,23.40
2018-09-11T12:02:36.211Z,23.40
2018-09-11T12:05:07.741Z,23.40
2018-09-11T12:07:39.331Z,23.40
2018-09-11T12:10:10.925Z,23.40
2018-09-11T12:12:41.559Z,23.40
2018-09-11T12:15:12.999Z,23.40
2018-09-11T12:17:44.678Z,23.40
2018-09-11T12:20:16.016Z,23.40
2018-09-11T12:22:47.565Z,23.40
2018-09-11T12:25:19.000Z,23.40
2018-09-11T12:27:50.535Z,23.40
2018-09-11T12:30:22.210Z,23.40
2018-09-11T12:32:53.723Z,23.40
2018-09-11T12:35:25.319Z,23.40
2018-09-11T12:37:56.714Z,23.40
2018-09-11T12:40:28.323Z,23.40
2018-09-11T12:42:59.764Z,23.40
2018-09-11T12:45:31.032Z,23.40
2018-09-11T12:48:03.065Z,23.40
2018-09-11T12:50:34.013Z,23.40
2018-09-11T12:53:05.625Z,23.40
2018-09-11T12:55:37.200Z,23.40
2018-09-11T12:58:08.701Z,23.40
2018-09-11T13:00:40.231Z,23.40
2018-09-11T13:03:11.713Z,23.40
2018-09-11T13:05:43.426Z,23.40
2018-09-11T13:08:14.802Z,23.40
2018-09-11T13:15:48.313Z,23.50
2018-09-11T13:18:19.797Z,23.50
2018-09-11T13:25:53.749Z,23.50
2018-09-11T13:30:07.553Z,23.50
2018-09-11T13:32:38.661Z,23.40
2018-09-11T13:35:09.716Z,23.40
2018-09-11T13:37:40.699Z,23.40
2018-09-11T13:40:11.828Z,23.40
2018-09-11T13:42:42.848Z,23.40
2018-09-11T13:45:14.217Z,23.40
2018-09-11T13:47:45.461Z,23.40
2018-09-11T13:50:16.707Z,23.30
2018-09-11T13:52:47.761Z,23.30
2018-09-11T13:55:18.781Z,23.30
2018-09-11T14:02:51.692Z,23.50
2018-09-11T14:05:22.700Z,23.40
2018-09-11T14:07:53.752Z,23.40
2018-09-11T14:10:24.910Z,23.30
2018-09-11T14:12:55.678Z,23.40
2018-09-11T14:15:27.366Z,23.40
2018-09-11T14:17:58.805Z,23.30
2018-09-11T14:20:30.400Z,23.30
2018-09-11T14:23:01.790Z,23.40
2018-09-11T14:25:33.367Z,23.40
2018-09-11T14:28:04.798Z,23.40
2018-09-11T14:33:07.416Z,23.30
2018-09-11T14:35:38.808Z,23.40
2018-09-11T14:38:10.343Z,23.40
2018-09-11T14:40:41.788Z,23.30
2018-09-11T14:48:15.901Z,23.50
2018-09-11T14:50:46.604Z,23.40
2018-09-11T14:53:18.220Z,23.40
2018-09-11T14:55:49.870Z,23.40
2018-09-11T14:58:21.344Z,23.30
2018-09-11T15:00:52.785Z,23.30
2018-09-11T15:03:24.488Z,23.40
2018-09-11T15:05:56.013Z,23.40
2018-09-11T15:08:27.532Z,23.40
2018-09-11T15:10:59.207Z,23.40
2018-09-11T15:13:30.926Z,23.30
2018-09-11T15:16:01.597Z,23.30
2018-09-11T15:18:33.220Z,23.30
2018-09-11T15:21:04.776Z,23.30
2018-09-11T15:26:07.766Z,23.30
2018-09-11T15:28:39.425Z,23.30
2018-09-11T15:31:10.923Z,23.30
2018-09-11T15:33:41.588Z,23.30
2018-09-11T15:36:13.227Z,23.30
2018-09-11T15:38:44.830Z,23.30
2018-09-11T15:41:16.367Z,23.30
2018-09-11T15:43:47.845Z,23.30
2018-09-11T15:46:19.394Z,23.30
2018-09-11T15:48:50.886Z,23.30
2018-09-11T15:51:21.582Z,23.30
2018-09-11T15:53:53.224Z,23.30
2018-09-11T15:56:24.751Z,23.30
2018-09-11T15:58:56.303Z,23.30
2018-09-11T16:01:27.777Z,23.30
2018-09-11T16:09:01.807Z,23.50
2018-09-11T16:11:33.427Z,23.40
2018-09-11T16:14:05.315Z,23.30
2018-09-11T16:16:36.961Z,23.30
2018-09-11T16:19:09.315Z,23.30
2018-09-11T16:21:40.919Z,23.30
2018-09-11T16:24:11.596Z,23.30
2018-09-11T16:26:43.210Z,23.30
2018-09-11T16:29:14.778Z,23.30
2018-09-11T16:31:46.319Z,23.30
2018-09-11T16:34:18.213Z,23.30
2018-09-11T16:36:49.792Z,23.30
2018-09-11T16:39:21.436Z,23.30
2018-09-11T16:41:52.883Z,23.30
2018-09-11T16:44:23.613Z,23.30
2018-09-11T16:46:55.215Z,23.30
2018-09-11T16:49:26.730Z,23.30
2018-09-11T16:51:58.365Z,23.30
2018-09-11T16:54:29.764Z,23.30
2018-09-11T16:57:01.421Z,23.30
2018-09-11T16:59:32.985Z,23.30
2018-09-11T17:02:04.641Z,23.30
2018-09-11T17:04:36.238Z,23.30
2018-09-11T17:07:07.757Z,23.30
2018-09-11T17:09:39.327Z,23.30
2018-09-11T17:12:10.903Z,23.40
2018-09-11T17:14:41.630Z,23.40
2018-09-11T17:17:13.013Z,23.40
2018-09-11T17:19:44.683Z,23.40
2018-09-11T17:22:16.497Z,23.40
2018-09-11T17:24:47.876Z,23.40
2018-09-11T17:27:18.605Z,23.40
2018-09-11T17:29:50.074Z,23.40
2018-09-11T17:32:21.655Z,23.40
2018-09-11T17:34:53.309Z,23.40
2018-09-11T17:37:24.808Z,23.40
2018-09-11T17:44:58.923Z,23.50
2018-09-11T17:47:29.555Z,23.50
2018-09-11T17:50:01.229Z,23.40
2018-09-11T17:52:32.705Z,23.40
2018-09-11T17:55:07.224Z,23.40
2018-09-11T17:57:38.789Z,23.40
2018-09-11T18:00:10.394Z,23.40
2018-09-11T18:02:41.869Z,23.40
2018-09-11T18:05:13.445Z,23.40
2018-09-11T18:07:44.847Z,23.40
2018-09-11T18:10:16.372Z,23.40
2018-09-11T18:12:47.784Z,23.40
2018-09-11T18:15:19.416Z,23.40
2018-09-11T18:17:51.021Z,23.40
2018-09-11T18:20:22.799Z,23.40
2018-09-11T18:22:54.369Z,23.40
2018-09-11T18:25:25.854Z,23.40
2018-09-11T18:27:57.536Z,23.40
2018-09-11T18:30:29.202Z,23.40
2018-09-11T18:33:03.719Z,23.40
2018-09-11T18:35:35.592Z,23.40
2018-09-11T18:38:08.546Z,23.40
2018-09-11T18:40:40.001Z,23.40
2018-09-11T18:43:11.618Z,23.40
2018-09-11T18:45:43.199Z,23.40
2018-09-11T18:48:14.704Z,23.40
2018-09-11T18:50:46.222Z,23.40
2018-09-11T18:53:17.700Z,23.30
2018-09-11T18:55:49.363Z,23.30
2018-09-11T18:58:20.890Z,23.40
2018-09-11T19:00:51.557Z,23.30
2018-09-11T19:03:23.309Z,23.40
2018-09-11T19:05:54.801Z,23.30
2018-09-11T19:08:26.448Z,23.30
2018-09-11T19:10:58.050Z,23.30
2018-09-11T19:13:29.714Z,23.30
2018-09-11T19:16:01.466Z,23.30
2018-09-11T19:18:32.957Z,23.30
2018-09-11T19:21:04.591Z,23.30
2018-09-11T19:23:36.229Z,23.30
2018-09-11T19:26:07.758Z,23.30
2018-09-11T19:28:39.292Z,23.30
2018-09-11T19:31:10.789Z,23.30
2018-09-11T19:33:42.435Z,23.30
2018-09-11T19:36:14.209Z,23.20
2018-09-11T19:38:45.719Z,23.30
2018-09-11T19:41:17.333Z,23.20
2018-09-11T19:43:48.732Z,23.30
2018-09-11T19:46:20.316Z,23.30
2018-09-11T19:48:51.787Z,23.20
2018-09-11T19:51:23.390Z,23.30
2018-09-11T19:53:54.912Z,23.20
2018-09-11T19:56:26.674Z,23.20
2018-09-11T19:58:58.040Z,23.20
2018-09-11T20:01:29.539Z,23.20
2018-09-11T20:04:00.871Z,23.20
2018-09-11T20:06:31.556Z,23.20
2018-09-11T20:09:02.980Z,23.20
2018-09-11T20:11:34.686Z,23.20
2018-09-11T20:14:06.653Z,23.20
2018-09-11T20:16:38.304Z,23.20
2018-09-11T20:19:09.759Z,23.20
2018-09-11T20:21:41.140Z,23.20
2018-09-11T20:24:12.683Z,23.20
2018-09-11T20:26:44.751Z,23.20
2018-09-11T20:29:16.298Z,23.20
2018-09-11T20:31:47.780Z,23.20
2018-09-11T20:34:19.371Z,23.20
2018-09-11T20:36:50.847Z,23.20
2018-09-11T20:39:22.378Z,23.20
2018-09-11T20:41:53.832Z,23.20
2018-09-11T20:44:25.358Z,23.20
2018-09-11T20:46:56.847Z,23.20
2018-09-11T20:49:28.380Z,23.20
2018-09-11T20:51:59.952Z,23.20
2018-09-11T20:54:30.599Z,23.10
2018-09-11T20:57:02.208Z,23.20
2018-09-11T20:59:33.761Z,23.20
2018-09-11T21:02:05.019Z,23.20
2018-09-11T21:04:36.728Z,23.10
2018-09-11T21:07:08.305Z,23.20
2018-09-11T21:09:39.869Z,23.10
2018-09-11T21:12:10.583Z,23.10
2018-09-11T21:14:42.210Z,23.10
2018-09-11T21:17:13.778Z,23.10
2018-09-11T21:19:45.404Z,23.10
2018-09-11T21:22:23.794Z,23.10
2018-09-11T21:24:55.429Z,23.10
2018-09-11T21:27:26.882Z,23.10
2018-09-11T21:29:57.564Z,23.10
2018-09-11T21:32:29.017Z,23.10
2018-09-11T21:35:00.734Z,23.10
2018-09-11T21:37:32.302Z,23.10
2018-09-11T21:40:03.720Z,23.10
2018-09-11T21:42:35.284Z,23.10
2018-09-11T21:45:07.302Z,23.10
2018-09-11T21:47:38.777Z,23.10
2018-09-11T21:50:10.399Z,23.10
2018-09-11T21:52:41.842Z,23.10
2018-09-11T21:55:13.452Z,23.10
2018-09-11T21:57:44.965Z,23.10
2018-09-11T22:00:16.744Z,23.10
2018-09-11T22:02:48.211Z,23.10
2018-09-11T22:05:19.721Z,23.10
2018-09-11T22:07:51.390Z,23.10
2018-09-11T22:10:22.787Z,23.10
2018-09-11T22:17:55.683Z,23.20
2018-09-11T22:20:27.232Z,23.10
2018-09-11T22:22:58.697Z,23.10
2018-09-11T22:25:30.337Z,23.10
2018-09-11T22:28:01.792Z,23.00
2018-09-11T22:30:33.425Z,23.00
2018-09-11T22:33:04.828Z,23.00
2018-09-11T22:35:36.434Z,23.00
2018-09-11T22:38:07.908Z,23.00
2018-09-11T22:40:38.532Z,23.00
2018-09-11T22:43:09.868Z,23.00
2018-09-11T22:45:41.434Z,23.00
2018-09-11T22:48:12.806Z,23.00
2018-09-11T22:50:44.307Z,23.00
2018-09-11T22:53:15.810Z,23.00
2018-09-11T22:55:47.397Z,23.00
2018-09-11T22:58:18.766Z,23.00
2018-09-11T23:00:50.404Z,23.00
2018-09-11T23:03:22.146Z,23.00
2018-09-11T23:05:53.631Z,23.00
2018-09-11T23:08:24.896Z,23.00
2018-09-11T23:10:56.506Z,23.00
2018-09-11T23:13:28.219Z,23.00
2018-09-11T23:15:59.714Z,22.90
2018-09-11T23:18:31.425Z,22.90
2018-09-11T23:21:02.871Z,22.90
2018-09-11T23:23:34.363Z,22.90
2018-09-11T23:26:05.891Z,22.90
2018-09-11T23:28:36.555Z,22.90
2018-09-11T23:31:08.192Z,22.90
2018-09-11T23:33:39.809Z,22.90
2018-09-11T23:36:11.301Z,22.90
2018-09-11T23:38:42.867Z,22.90
2018-09-11T23:41:14.385Z,22.90
2018-09-11T23:43:46.904Z,22.90
2018-09-11T23:46:18.552Z,22.90
2018-09-11T23:48:50.821Z,22.90
2018-09-11T23:51:22.318Z,22.90
2018-09-11T23:53:53.828Z,22.90
2018-09-11T23:56:25.401Z,22.90
2018-09-11T23:58:56.852Z,22.90
